createdAt,value
2017-10-29T00:02:23.482Z,95388.33
2017-10-29T00:04:51.159Z,95380.16
2017-10-29T00:07:18.885Z,95381.20
2017-10-29T00:09:46.598Z,95369.60
2017-10-29T00:12:14.542Z,95368.52
2017-10-29T00:14:42.155Z,95365.22
2017-10-29T00:17:11.242Z,95370.23
2017-10-29T00:19:38.858Z,95363.58
2017-10-29T00:22:06.695Z,95345.63
2017-10-29T00:24:34.340Z,95327.41
2017-10-29T00:27:02.033Z,95323.42
2017-10-29T00:29:29.704Z,95322.30
2017-10-29T00:31:57.299Z,95313.29
2017-10-29T00:34:25.049Z,95300.69
2017-10-29T00:36:52.864Z,95311.86
2017-10-29T00:39:20.622Z,95290.47
2017-10-29T00:41:48.449Z,95295.73
2017-10-29T00:44:16.690Z,95285.56
2017-10-29T00:46:44.342Z,95280.14
2017-10-29T00:49:12.140Z,95256.62
2017-10-29T00:51:39.761Z,95250.72
2017-10-29T00:54:07.574Z,95220.59
2017-10-29T00:56:35.333Z,95261.33
2017-10-29T00:59:02.885Z,95245.73
2017-10-29T01:01:30.469Z,95235.73
2017-10-29T01:03:58.068Z,95232.73
2017-10-29T01:06:25.648Z,95226.77
2017-10-29T01:08:53.258Z,95209.60
2017-10-29T01:11:21.469Z,95202.34
2017-10-29T01:13:49.161Z,95200.38
2017-10-29T01:16:16.920Z,95179.50
2017-10-29T01:18:44.472Z,95184.72
2017-10-29T01:21:12.323Z,95173.80
2017-10-29T01:23:39.943Z,95165.19
2017-10-29T01:26:07.513Z,95164.89
2017-10-29T01:28:35.129Z,95160.78
2017-10-29T01:31:02.681Z,95142.05
2017-10-29T01:33:30.323Z,95140.08
2017-10-29T01:35:58.075Z,95121.99
2017-10-29T01:38:25.770Z,95121.20
2017-10-29T01:40:53.363Z,95117.63
2017-10-29T01:43:20.957Z,95101.59
2017-10-29T01:45:48.506Z,95092.24
2017-10-29T01:48:16.053Z,95079.66
2017-10-29T01:50:44.097Z,95080.28
2017-10-29T01:53:11.791Z,95048.58
2017-10-29T01:55:40.170Z,95046.25
2017-10-29T01:58:07.863Z,95035.31
2017-10-29T02:00:35.469Z,95038.58
2017-10-29T02:03:03.088Z,95044.45
2017-10-29T02:05:30.770Z,95017.80
2017-10-29T02:07:58.412Z,95009.88
2017-10-29T02:10:26.325Z,95011.80
2017-10-29T02:12:54.929Z,94997.16
2017-10-29T02:15:22.860Z,94985.13
2017-10-29T02:17:50.451Z,94982.80
2017-10-29T02:20:18.062Z,94967.24
2017-10-29T02:22:46.118Z,94943.95
2017-10-29T02:25:13.789Z,94947.77
2017-10-29T02:27:41.413Z,94939.84
2017-10-29T02:30:10.167Z,94915.21
2017-10-29T02:32:37.820Z,94942.56
2017-10-29T02:35:06.100Z,94914.09
2017-10-29T02:37:33.824Z,94899.48
2017-10-29T02:40:01.509Z,94887.52
2017-10-29T02:42:30.329Z,94883.62
2017-10-29T02:44:57.913Z,94865.78
2017-10-29T02:47:25.881Z,94856.31
2017-10-29T02:49:54.264Z,94845.19
2017-10-29T02:52:22.054Z,94856.33
2017-10-29T02:54:49.652Z,94823.80
2017-10-29T02:57:17.354Z,94815.47
2017-10-29T02:59:44.901Z,94800.03
2017-10-29T03:02:13.120Z,94802.53
2017-10-29T03:04:44.513Z,94788.23
2017-10-29T03:07:12.421Z,94795.97
2017-10-29T03:09:41.738Z,94768.55
2017-10-29T03:12:12.707Z,94750.63
2017-10-29T03:14:43.946Z,94746.95
2017-10-29T03:17:12.618Z,94744.08
2017-10-29T03:19:40.462Z,94731.08
2017-10-29T03:22:08.104Z,94722.84
2017-10-29T03:24:36.022Z,94732.70
2017-10-29T03:27:04.163Z,94713.69
2017-10-29T03:29:32.881Z,94698.27
2017-10-29T03:32:03.978Z,94703.98
2017-10-29T03:34:31.600Z,94676.89
2017-10-29T03:36:59.168Z,94647.59
2017-10-29T03:39:26.804Z,94656.50
2017-10-29T03:41:54.431Z,94628.39
2017-10-29T03:44:26.459Z,94641.88
2017-10-29T03:46:55.999Z,94617.38
2017-10-29T03:49:25.255Z,94650.64
2017-10-29T03:51:53.268Z,94610.72
2017-10-29T03:54:20.844Z,94632.03
2017-10-29T03:56:49.852Z,94596.61
2017-10-29T03:59:20.301Z,94567.75
2017-10-29T04:01:48.532Z,94567.52
2017-10-29T04:04:16.316Z,94565.09
2017-10-29T04:06:44.042Z,94524.47
2017-10-29T04:09:11.971Z,94530.18
2017-10-29T04:11:40.386Z,94543.42
2017-10-29T04:14:09.151Z,94509.01
2017-10-29T04:16:36.981Z,94507.24
2017-10-29T04:19:04.606Z,94505.77
2017-10-29T04:21:32.878Z,94475.36
2017-10-29T04:24:00.775Z,94466.44
2017-10-29T04:26:29.265Z,94479.25
2017-10-29T04:28:56.880Z,94448.04
2017-10-29T04:31:25.575Z,94456.19
2017-10-29T04:33:54.345Z,94466.19
2017-10-29T04:36:22.032Z,94445.28
2017-10-29T04:38:49.638Z,94451.03
2017-10-29T04:41:17.325Z,94426.11
2017-10-29T04:43:45.071Z,94437.49
2017-10-29T04:46:12.637Z,94412.45
2017-10-29T04:48:40.184Z,94390.58
2017-10-29T04:51:08.323Z,94370.38
2017-10-29T04:53:36.087Z,94387.67
2017-10-29T04:56:05.928Z,94369.02
2017-10-29T04:58:33.647Z,94339.31
2017-10-29T05:01:01.317Z,94294.33
2017-10-29T05:03:29.306Z,94334.20
2017-10-29T05:05:57.116Z,94319.02
2017-10-29T05:08:24.810Z,94291.06
2017-10-29T05:10:52.725Z,94323.95
2017-10-29T05:13:20.610Z,94302.80
2017-10-29T05:15:48.337Z,94310.34
2017-10-29T05:18:16.253Z,94285.29
2017-10-29T05:20:44.239Z,94294.51
2017-10-29T05:23:13.168Z,94302.86
2017-10-29T05:25:42.118Z,94303.64
2017-10-29T05:28:09.940Z,94325.33
2017-10-29T05:30:37.507Z,94298.13
2017-10-29T05:33:05.206Z,94256.41
2017-10-29T05:35:32.843Z,94215.05
2017-10-29T05:38:00.480Z,94215.23
2017-10-29T05:40:28.104Z,94236.11
2017-10-29T05:42:55.699Z,94243.33
2017-10-29T05:45:24.113Z,94235.86
2017-10-29T05:47:51.774Z,94207.39
2017-10-29T05:50:26.156Z,94212.22
2017-10-29T05:52:53.733Z,94219.09
2017-10-29T05:55:21.565Z,94212.49
2017-10-29T05:57:49.169Z,94185.97
2017-10-29T06:00:17.838Z,94210.40
2017-10-29T06:02:45.532Z,94233.62
2017-10-29T06:05:13.902Z,94208.31
2017-10-29T06:07:41.500Z,94211.11
2017-10-29T06:10:09.055Z,94199.11
2017-10-29T06:12:36.957Z,94204.89
2017-10-29T06:15:04.566Z,94214.91
2017-10-29T06:17:32.341Z,94203.01
2017-10-29T06:19:59.901Z,94202.11
2017-10-29T06:22:30.235Z,94209.12
2017-10-29T06:24:57.844Z,94180.41
2017-10-29T06:27:26.235Z,94171.09
2017-10-29T06:29:53.881Z,94183.41
2017-10-29T06:32:24.084Z,94160.93
2017-10-29T06:34:51.642Z,94194.20
2017-10-29T06:40:10.098Z,94168.20
2017-10-29T06:42:37.685Z,94162.67
2017-10-29T06:45:05.861Z,94147.72
2017-10-29T06:47:34.183Z,94186.52
2017-10-29T06:50:01.753Z,94165.80
2017-10-29T06:52:29.473Z,94164.05
2017-10-29T06:54:57.063Z,94145.14
2017-10-29T06:57:26.345Z,94150.41
2017-10-29T06:59:54.462Z,94139.08
2017-10-29T07:02:27.752Z,94138.81
2017-10-29T07:04:55.646Z,94132.83
2017-10-29T07:07:23.814Z,94126.03
2017-10-29T07:09:51.396Z,94114.55
2017-10-29T07:12:19.073Z,94101.85
2017-10-29T07:14:48.524Z,94120.38
2017-10-29T07:17:16.481Z,94116.84
2017-10-29T07:19:46.629Z,94102.40
2017-10-29T07:22:15.804Z,94113.09
2017-10-29T07:24:43.378Z,94086.19
2017-10-29T07:27:13.836Z,94083.14
2017-10-29T07:29:41.587Z,94067.88
2017-10-29T07:32:10.592Z,94059.34
2017-10-29T07:34:38.841Z,94063.23
2017-10-29T07:37:07.497Z,94095.09
2017-10-29T07:39:36.501Z,94055.02
2017-10-29T07:42:06.698Z,94052.06
2017-10-29T07:44:34.279Z,94061.02
2017-10-29T07:47:03.958Z,94055.97
2017-10-29T07:49:34.516Z,94043.52
2017-10-29T07:52:05.236Z,94032.97
2017-10-29T07:54:33.080Z,94043.78
2017-10-29T07:57:00.860Z,94059.16
2017-10-29T07:59:28.842Z,94019.64
2017-10-29T08:01:56.447Z,94024.41
2017-10-29T08:04:24.033Z,94007.03
2017-10-29T08:06:51.635Z,94034.02
2017-10-29T08:09:19.177Z,94005.52
2017-10-29T08:11:46.958Z,94016.63
2017-10-29T08:14:14.584Z,93994.17
2017-10-29T08:16:42.200Z,94016.41
2017-10-29T08:19:10.652Z,94002.73
2017-10-29T08:21:38.401Z,94021.12
2017-10-29T08:24:05.968Z,94011.76
2017-10-29T08:26:33.776Z,93992.95
2017-10-29T08:29:01.342Z,94003.95
2017-10-29T08:31:28.917Z,93985.03
2017-10-29T08:33:56.507Z,94017.44
2017-10-29T08:36:24.234Z,93986.08
2017-10-29T08:38:51.809Z,93990.09
2017-10-29T08:41:19.433Z,93993.23
2017-10-29T08:43:47.595Z,94001.84
2017-10-29T08:46:15.175Z,94000.91
2017-10-29T08:48:42.745Z,93968.62
2017-10-29T08:51:11.313Z,93987.19
2017-10-29T08:53:44.762Z,94003.25
2017-10-29T08:56:12.592Z,93993.83
2017-10-29T08:58:40.144Z,94021.88
2017-10-29T09:01:07.726Z,94005.58
2017-10-29T09:03:35.626Z,94006.86
2017-10-29T09:06:03.241Z,93991.66
2017-10-29T09:08:30.797Z,94016.16
2017-10-29T09:10:58.513Z,94009.53
2017-10-29T09:16:17.344Z,93982.91
2017-10-29T09:18:44.907Z,93984.09
2017-10-29T09:21:13.213Z,94006.27
2017-10-29T09:23:42.878Z,94006.58
2017-10-29T09:26:10.516Z,94011.06
2017-10-29T09:28:38.135Z,94022.05
2017-10-29T09:31:05.788Z,94034.94
2017-10-29T09:33:33.396Z,94057.41
2017-10-29T09:36:00.961Z,94082.07
2017-10-29T09:38:28.878Z,94127.70
2017-10-29T09:40:56.432Z,94146.29
2017-10-29T09:43:24.044Z,94169.98
2017-10-29T09:45:51.831Z,94194.70
2017-10-29T09:48:19.710Z,94224.06
2017-10-29T09:50:47.451Z,94237.00
2017-10-29T09:53:16.721Z,94250.70
2017-10-29T09:55:44.931Z,94259.88
2017-10-29T09:58:14.724Z,94275.81
2017-10-29T10:00:42.424Z,94258.58
2017-10-29T10:03:10.393Z,94245.72
2017-10-29T10:05:39.083Z,94262.05
2017-10-29T10:08:06.706Z,94257.13
2017-10-29T10:10:34.264Z,94260.80
2017-10-29T10:13:01.842Z,94259.45
2017-10-29T10:15:31.959Z,94258.22
2017-10-29T10:20:49.880Z,94294.11
2017-10-29T10:23:18.582Z,94301.73
2017-10-29T10:25:46.122Z,94322.44
2017-10-29T10:28:13.750Z,94299.22
2017-10-29T10:30:41.411Z,94293.89
2017-10-29T10:33:09.351Z,94282.81
2017-10-29T10:35:38.850Z,94283.58
2017-10-29T10:38:06.497Z,94288.91
2017-10-29T10:40:35.368Z,94271.81
2017-10-29T10:43:03.348Z,94307.23
2017-10-29T10:45:31.264Z,94305.37
2017-10-29T10:48:00.057Z,94288.33
2017-10-29T10:50:29.176Z,94278.95
2017-10-29T10:52:56.754Z,94262.31
2017-10-29T10:55:24.388Z,94268.11
2017-10-29T10:57:52.055Z,94277.37
2017-10-29T11:00:19.960Z,94281.08
2017-10-29T11:02:47.562Z,94284.92
2017-10-29T11:05:15.305Z,94286.20
2017-10-29T11:07:43.121Z,94298.33
2017-10-29T11:13:05.438Z,94294.62
2017-10-29T11:15:33.178Z,94318.42
2017-10-29T11:18:00.791Z,94317.25
2017-10-29T11:20:28.435Z,94323.99
2017-10-29T11:22:56.110Z,94322.28
2017-10-29T11:25:24.664Z,94330.05
2017-10-29T11:27:54.342Z,94330.16
2017-10-29T11:30:22.365Z,94333.83
2017-10-29T11:32:50.081Z,94334.61
2017-10-29T11:35:20.199Z,94365.25
2017-10-29T11:37:49.912Z,94363.95
2017-10-29T11:40:17.743Z,94367.80
2017-10-29T11:42:45.587Z,94377.10
2017-10-29T11:45:16.338Z,94372.66
2017-10-29T11:47:44.003Z,94386.86
2017-10-29T11:50:11.679Z,94388.11
2017-10-29T11:52:40.727Z,94406.86
2017-10-29T11:55:13.151Z,94393.00
2017-10-29T11:57:40.828Z,94421.20
2017-10-29T12:00:12.605Z,94433.37
2017-10-29T12:02:40.382Z,94439.66
2017-10-29T12:05:08.240Z,94442.08
2017-10-29T12:07:35.963Z,94450.94
2017-10-29T12:10:03.520Z,94460.69
2017-10-29T12:12:31.192Z,94447.91
2017-10-29T12:14:58.835Z,94452.91
2017-10-29T12:17:26.462Z,94466.20
2017-10-29T12:19:54.238Z,94474.92
2017-10-29T12:22:22.851Z,94487.81
2017-10-29T12:24:50.502Z,94513.19
2017-10-29T12:27:18.164Z,94507.55
2017-10-29T12:29:45.727Z,94520.61
2017-10-29T12:32:13.690Z,94517.24
2017-10-29T12:34:41.319Z,94546.73
2017-10-29T12:37:09.178Z,94559.52
2017-10-29T12:39:36.790Z,94576.53
2017-10-29T12:42:04.434Z,94561.89
2017-10-29T12:44:32.032Z,94560.94
2017-10-29T12:46:59.626Z,94544.78
2017-10-29T12:49:28.199Z,94565.30
2017-10-29T12:51:55.771Z,94570.53
2017-10-29T12:54:23.427Z,94577.41
2017-10-29T12:56:50.983Z,94582.84
2017-10-29T12:59:18.573Z,94586.14
2017-10-29T13:01:46.166Z,94592.00
2017-10-29T13:04:13.734Z,94592.05
2017-10-29T13:06:41.275Z,94605.42
2017-10-29T13:09:09.009Z,94602.42
2017-10-29T13:11:36.692Z,94618.89
2017-10-29T13:14:04.264Z,94625.77
2017-10-29T13:16:31.853Z,94625.13
2017-10-29T13:18:59.406Z,94624.77
2017-10-29T13:21:27.636Z,94629.58
2017-10-29T13:23:55.240Z,94656.58
2017-10-29T13:26:22.808Z,94646.36
2017-10-29T13:28:50.389Z,94668.66
2017-10-29T13:31:17.993Z,94664.33
2017-10-29T13:33:45.581Z,94673.84
2017-10-29T13:36:13.156Z,94672.92
2017-10-29T13:38:40.746Z,94695.02
2017-10-29T13:41:08.975Z,94674.98
2017-10-29T13:43:36.527Z,94699.78
2017-10-29T13:46:04.122Z,94693.81
2017-10-29T13:48:31.690Z,94715.58
2017-10-29T13:51:00.071Z,94713.42
2017-10-29T13:53:27.692Z,94728.39
2017-10-29T13:55:55.350Z,94732.77
2017-10-29T13:58:22.960Z,94728.22
2017-10-29T14:00:50.572Z,94750.01
2017-10-29T14:03:18.136Z,94733.97
2017-10-29T14:05:45.704Z,94722.47
2017-10-29T14:08:13.504Z,94752.24
2017-10-29T14:10:41.069Z,94755.03
2017-10-29T14:13:08.833Z,94755.38
2017-10-29T14:15:36.515Z,94754.63
2017-10-29T14:18:04.546Z,94772.13
2017-10-29T14:20:32.114Z,94763.59
2017-10-29T14:22:59.829Z,94775.09
2017-10-29T14:25:28.805Z,94782.67
2017-10-29T14:27:56.380Z,94778.73
2017-10-29T14:30:23.970Z,94790.52
2017-10-29T14:32:51.554Z,94801.66
2017-10-29T14:35:19.138Z,94801.28
2017-10-29T14:37:46.762Z,94804.98
2017-10-29T14:40:14.344Z,94817.56
2017-10-29T14:42:42.006Z,94826.28
2017-10-29T14:45:10.063Z,94841.55
2017-10-29T14:47:37.690Z,94856.08
2017-10-29T14:50:05.257Z,94865.95
2017-10-29T14:52:32.883Z,94880.69
2017-10-29T14:55:00.460Z,94884.33
2017-10-29T14:57:28.095Z,94889.98
2017-10-29T14:59:55.665Z,94872.20
2017-10-29T15:02:23.257Z,94898.52
2017-10-29T15:04:51.391Z,94907.41
2017-10-29T15:07:19.033Z,94893.32
2017-10-29T15:09:46.836Z,94903.80
2017-10-29T15:12:14.436Z,94924.27
2017-10-29T15:14:42.015Z,94941.70
2017-10-29T15:17:09.828Z,94956.86
2017-10-29T15:19:37.736Z,94941.82
2017-10-29T15:22:05.409Z,94948.89
2017-10-29T15:24:33.097Z,94950.78
2017-10-29T15:27:01.207Z,94955.87
2017-10-29T15:29:29.436Z,94964.79
2017-10-29T15:31:57.177Z,94971.27
2017-10-29T15:34:25.228Z,94983.67
2017-10-29T15:36:54.100Z,94987.38
2017-10-29T15:39:21.680Z,95000.87
2017-10-29T15:41:51.356Z,95008.92
2017-10-29T15:44:19.138Z,95030.56
2017-10-29T15:46:47.385Z,95037.52
2017-10-29T15:49:15.078Z,95053.87
2017-10-29T15:51:42.642Z,95081.04
2017-10-29T15:54:10.218Z,95097.94
2017-10-29T15:56:38.765Z,95088.22
2017-10-29T15:59:06.357Z,95099.78
2017-10-29T16:01:33.958Z,95101.66
2017-10-29T16:04:01.588Z,95107.37
2017-10-29T16:06:29.189Z,95097.98
2017-10-29T16:08:56.773Z,95103.32
2017-10-29T16:11:24.629Z,95106.97
2017-10-29T16:13:52.255Z,95101.75
2017-10-29T16:16:19.842Z,95120.18
2017-10-29T16:18:47.406Z,95113.33
2017-10-29T16:21:14.958Z,95122.97
2017-10-29T16:23:42.549Z,95126.69
2017-10-29T16:26:10.315Z,95129.83
2017-10-29T16:28:37.946Z,95131.75
2017-10-29T16:31:06.292Z,95136.78
2017-10-29T16:33:33.976Z,95145.03
2017-10-29T16:36:01.716Z,95159.44
2017-10-29T16:38:29.268Z,95157.51
2017-10-29T16:40:56.857Z,95170.48
2017-10-29T16:43:24.812Z,95181.82
2017-10-29T16:45:52.621Z,95180.39
2017-10-29T16:48:21.426Z,95193.48
2017-10-29T16:50:49.099Z,95195.61
2017-10-29T16:53:16.638Z,95196.23
2017-10-29T16:55:44.233Z,95202.11
2017-10-29T16:58:11.977Z,95195.95
2017-10-29T17:00:39.538Z,95218.75
2017-10-29T17:05:57.304Z,95243.44
2017-10-29T17:08:24.893Z,95234.77
2017-10-29T17:10:52.712Z,95235.70
2017-10-29T17:13:20.841Z,95248.20
2017-10-29T17:15:48.587Z,95250.05
2017-10-29T17:18:16.166Z,95264.83
2017-10-29T17:20:43.762Z,95259.28
2017-10-29T17:23:11.655Z,95270.83
2017-10-29T17:25:39.275Z,95262.86
2017-10-29T17:28:07.102Z,95275.23
2017-10-29T17:30:35.055Z,95267.92
2017-10-29T17:33:02.964Z,95275.97
2017-10-29T17:35:31.706Z,95277.03
2017-10-29T17:37:59.460Z,95274.23
2017-10-29T17:40:27.289Z,95276.58
2017-10-29T17:42:54.981Z,95267.25
2017-10-29T17:45:22.793Z,95284.67
2017-10-29T17:47:50.798Z,95289.97
2017-10-29T17:50:18.501Z,95279.98
2017-10-29T17:52:46.103Z,95285.66
2017-10-29T17:55:14.361Z,95283.80
2017-10-29T17:57:42.213Z,95285.66
2017-10-29T18:00:09.956Z,95301.75
2017-10-29T18:02:37.769Z,95290.55
2017-10-29T18:05:05.611Z,95286.32
2017-10-29T18:07:33.623Z,95292.36
2017-10-29T18:10:01.501Z,95297.86
2017-10-29T18:12:29.683Z,95303.36
2017-10-29T18:14:57.247Z,95297.91
2017-10-29T18:17:25.909Z,95302.02
2017-10-29T18:19:53.482Z,95310.64
2017-10-29T18:22:21.729Z,95309.58
2017-10-29T18:24:58.056Z,95318.50
2017-10-29T18:27:26.170Z,95327.90
2017-10-29T18:29:53.743Z,95327.25
2017-10-29T18:32:22.252Z,95341.05
2017-10-29T18:34:49.810Z,95355.34
2017-10-29T18:37:17.369Z,95348.28
2017-10-29T18:39:45.016Z,95349.38
2017-10-29T18:42:12.628Z,95354.34
2017-10-29T18:44:40.202Z,95363.48
2017-10-29T18:47:07.924Z,95359.03
2017-10-29T18:49:36.279Z,95356.19
2017-10-29T18:52:03.901Z,95361.56
2017-10-29T18:54:32.520Z,95365.56
2017-10-29T18:57:00.234Z,95377.42
2017-10-29T18:59:28.081Z,95368.06
2017-10-29T19:01:55.848Z,95378.06
2017-10-29T19:04:23.404Z,95378.70
2017-10-29T19:06:51.017Z,95382.11
2017-10-29T19:09:22.464Z,95393.81
2017-10-29T19:11:50.193Z,95401.86
2017-10-29T19:14:17.825Z,95396.05
2017-10-29T19:16:45.405Z,95407.29
2017-10-29T19:19:13.426Z,95420.48
2017-10-29T19:21:41.406Z,95422.92
2017-10-29T19:24:09.006Z,95420.37
2017-10-29T19:26:36.556Z,95425.89
2017-10-29T19:29:04.142Z,95443.95
2017-10-29T19:31:31.724Z,95451.89
2017-10-29T19:33:59.263Z,95451.94
2017-10-29T19:36:26.826Z,95459.06
2017-10-29T19:38:54.966Z,95457.93
2017-10-29T19:41:22.534Z,95467.23
2017-10-29T19:43:50.158Z,95474.19
2017-10-29T19:46:17.763Z,95489.95
2017-10-29T19:48:47.861Z,95495.49
2017-10-29T19:51:15.421Z,95503.56
2017-10-29T19:53:45.456Z,95518.39
2017-10-29T19:56:13.014Z,95513.72
2017-10-29T19:58:40.600Z,95515.88
2017-10-29T20:03:59.270Z,95524.23
2017-10-29T20:06:27.540Z,95527.98
2017-10-29T20:08:55.073Z,95522.84
2017-10-29T20:11:23.706Z,95537.88
2017-10-29T20:13:51.288Z,95548.55
2017-10-29T20:16:20.024Z,95554.00
2017-10-29T20:18:47.582Z,95547.68
2017-10-29T20:21:15.153Z,95546.41
2017-10-29T20:23:42.710Z,95549.59
2017-10-29T20:26:10.488Z,95549.89
2017-10-29T20:28:38.050Z,95541.87
2017-10-29T20:31:05.716Z,95554.44
2017-10-29T20:33:33.259Z,95571.09
2017-10-29T20:36:00.817Z,95598.10
2017-10-29T20:38:29.350Z,95598.64
2017-10-29T20:40:56.927Z,95600.14
2017-10-29T20:43:24.596Z,95605.92
2017-10-29T20:45:53.062Z,95602.20
2017-10-29T20:48:21.063Z,95600.45
2017-10-29T20:50:48.631Z,95604.22
2017-10-29T20:53:16.245Z,95622.88
2017-10-29T20:55:43.850Z,95631.95
2017-10-29T20:58:12.330Z,95622.35
2017-10-29T21:00:40.050Z,95619.50
2017-10-29T21:03:08.209Z,95626.70
2017-10-29T21:05:49.513Z,95629.33
2017-10-29T21:08:17.085Z,95640.24
2017-10-29T21:10:44.696Z,95638.98
2017-10-29T21:13:12.627Z,95640.14
2017-10-29T21:15:40.174Z,95630.44
2017-10-29T21:18:07.857Z,95640.64
2017-10-29T21:20:35.412Z,95633.52
2017-10-29T21:23:02.989Z,95643.67
2017-10-29T21:25:31.550Z,95633.00
2017-10-29T21:27:59.389Z,95638.50
2017-10-29T21:30:27.743Z,95679.58
2017-10-29T21:32:55.501Z,95652.47
2017-10-29T21:35:23.622Z,95651.04
2017-10-29T21:37:51.262Z,95633.42
2017-10-29T21:40:18.807Z,95617.97
2017-10-29T21:42:46.406Z,95618.34
2017-10-29T21:45:14.048Z,95639.33
2017-10-29T21:47:41.601Z,95628.30
2017-10-29T21:50:09.198Z,95624.22
2017-10-29T21:52:36.780Z,95631.38
2017-10-29T21:55:04.339Z,95629.41
2017-10-29T21:57:32.169Z,95620.07
2017-10-29T21:59:59.747Z,95630.75
2017-10-29T22:02:27.387Z,95642.70
2017-10-29T22:04:55.015Z,95641.62
2017-10-29T22:07:23.060Z,95640.44
2017-10-29T22:09:50.661Z,95645.58
2017-10-29T22:12:18.269Z,95645.04
2017-10-29T22:14:45.933Z,95635.85
2017-10-29T22:17:14.204Z,95630.75
2017-10-29T22:19:41.811Z,95632.23
2017-10-29T22:22:09.476Z,95637.88
2017-10-29T22:24:37.055Z,95634.53
2017-10-29T22:27:05.081Z,95629.83
2017-10-29T22:29:32.925Z,95631.01
2017-10-29T22:32:00.526Z,95633.16
2017-10-29T22:34:28.151Z,95634.81
2017-10-29T22:36:56.211Z,95644.46
2017-10-29T22:39:24.821Z,95639.83
2017-10-29T22:41:52.416Z,95651.66
2017-10-29T22:44:20.054Z,95640.89
2017-10-29T22:46:47.661Z,95635.18
2017-10-29T22:49:15.293Z,95642.05
2017-10-29T22:51:42.906Z,95640.72
2017-10-29T22:54:10.499Z,95647.47
2017-10-29T22:56:38.151Z,95648.53
2017-10-29T22:59:05.791Z,95645.69
2017-10-29T23:01:33.793Z,95658.11
2017-10-29T23:04:01.388Z,95653.98
2017-10-29T23:06:41.347Z,95653.71
2017-10-29T23:09:23.658Z,95664.12
2017-10-29T23:11:51.273Z,95663.19
2017-10-29T23:14:18.833Z,95664.51
2017-10-29T23:16:46.405Z,95665.50
2017-10-29T23:19:13.949Z,95662.88
2017-10-29T23:21:41.571Z,95660.93
2017-10-29T23:24:09.373Z,95669.13
2017-10-29T23:26:37.371Z,95670.64
2017-10-29T23:29:05.254Z,95678.44
2017-10-29T23:31:32.974Z,95678.66
2017-10-29T23:34:00.551Z,95687.28
2017-10-29T23:36:28.106Z,95686.33
2017-10-29T23:38:55.690Z,95685.82
2017-10-29T23:41:24.371Z,95698.50
2017-10-29T23:43:51.928Z,95695.42
2017-10-29T23:46:19.798Z,95706.87
2017-10-29T23:48:47.394Z,95697.89
2017-10-29T23:51:15.073Z,95709.09
2017-10-29T23:53:42.656Z,95706.11
2017-10-29T23:56:10.291Z,95714.50
2017-10-29T23:58:37.896Z,95707.41
